Decoded Metar for KMOB (MOBILE in AL, USA) (IATA:MOB) | Meteo·Mobile Aviation Weather
aviador You're here:

KMOB Decoded Metar

MOBILE in AL, USA
Report Time2018-12-11 00:56:00
UTC Time2018-12-11 01:57:53
Flight Rules vfr VFR
Wind300° at 04 kt
W.Decomp.*RWY 32: 3.8 kt HW 1.3 kt LCW
RWY 36: 2.1 kt HW 3.4 kt LCW
W.Rank300° ranks 30
Current wind is below 300° avg. (5.5)
Visibility9999 m
Phenomena:N/A
Clouds:Overcast 040 Hf
Expected CloudBase > 2,000 ft AGL from Temp-Dew spread
Ceiling4,000 ft
Temp09°C (ISA -6)
Dew Point04°C (71% RH)
AAT6.2°C
QNH1025 hPa
Density Alt-758 ft
Elevation207 ft
Report Wrong Elevation
Raw Report
KMOB 110056Z 30004KT 10SM OVC040 09/04 A3026 RMK AO2 SLP247
T00890044=

Extra information for KMOB:More info

Metar Taf Metar & Taf Last 4 Metars F.Rules Stats Wind Profile Meteogram Temp Stats Airport Information Weather charts Add Link Nearby VenuesMetar ALERT Operation Metar Decoded Social comments

AIRNAV info for KMOB